createdAt,value
2022-10-05T00:01:33.908Z,43.13
2022-10-05T00:06:39.988Z,50.15
2022-10-05T00:11:45.986Z,39.42
2022-10-05T00:22:09.470Z,69.00
2022-10-05T00:27:26.308Z,52.03
2022-10-05T00:32:32.136Z,70.10
2022-10-05T00:37:38.332Z,96.15
2022-10-05T00:42:49.676Z,86.57
2022-10-05T00:48:01.932Z,87.03
2022-10-05T00:53:22.920Z,85.47
2022-10-05T00:58:35.302Z,86.10
2022-10-05T01:03:46.560Z,73.28
2022-10-05T01:09:08.555Z,90.55
2022-10-05T01:14:34.517Z,97.53
2022-10-05T01:24:52.154Z,81.70
2022-10-05T01:30:09.474Z,80.68
2022-10-05T01:35:15.470Z,75.32
2022-10-05T01:40:23.970Z,85.15
2022-10-05T01:45:52.430Z,63.10
2022-10-05T01:51:24.767Z,68.47
2022-10-05T01:56:33.185Z,63.13
2022-10-05T02:01:48.464Z,52.35
2022-10-05T02:06:54.546Z,79.53
2022-10-05T02:12:05.571Z,64.47
2022-10-05T02:17:15.803Z,65.72
2022-10-05T02:22:26.485Z,53.13
2022-10-05T02:27:36.171Z,57.70
2022-10-05T02:32:47.069Z,57.97
2022-10-05T02:38:11.221Z,47.50
2022-10-05T02:43:21.774Z,50.65
2022-10-05T02:48:42.572Z,58.85
2022-10-05T02:54:05.930Z,66.38
2022-10-05T02:59:33.722Z,51.60
2022-10-05T03:04:52.974Z,60.10
2022-10-05T03:10:05.995Z,57.30
2022-10-05T03:15:21.962Z,52.83
2022-10-05T03:20:41.423Z,55.90
2022-10-05T03:25:59.150Z,62.30
2022-10-05T03:31:16.069Z,52.75
2022-10-05T03:36:39.750Z,50.92
2022-10-05T03:41:55.503Z,54.67
2022-10-05T03:47:10.357Z,51.03
2022-10-05T03:52:24.314Z,57.92
2022-10-05T03:57:32.990Z,51.33
2022-10-05T04:02:48.642Z,43.83
2022-10-05T04:07:57.981Z,48.53
2022-10-05T04:13:15.566Z,44.15
2022-10-05T04:18:28.660Z,36.15
2022-10-05T04:23:52.652Z,42.60
2022-10-05T04:29:05.939Z,38.83
2022-10-05T04:34:20.703Z,35.28
2022-10-05T04:39:35.326Z,48.47
2022-10-05T04:44:59.525Z,33.72
2022-10-05T04:50:26.301Z,37.88
2022-10-05T04:56:03.853Z,28.23
2022-10-05T05:01:12.562Z,28.88
2022-10-05T05:06:37.162Z,31.90
2022-10-05T05:11:43.295Z,35.75
2022-10-05T05:17:13.023Z,25.38
2022-10-05T05:22:37.766Z,30.15
2022-10-05T05:27:46.090Z,29.63
2022-10-05T05:32:52.516Z,30.35
2022-10-05T05:38:11.576Z,31.65
2022-10-05T05:43:25.390Z,31.88
2022-10-05T05:48:38.192Z,33.72
2022-10-05T05:53:49.576Z,29.05
2022-10-05T05:58:59.535Z,34.25
2022-10-05T06:04:08.282Z,34.85
2022-10-05T06:09:36.915Z,34.63
2022-10-05T06:15:02.422Z,36.78
2022-10-05T06:20:12.853Z,31.33
2022-10-05T06:25:24.522Z,32.75
2022-10-05T06:30:36.339Z,33.80
2022-10-05T06:36:12.536Z,33.65
2022-10-05T06:41:26.440Z,32.67
2022-10-05T06:46:47.567Z,36.88
2022-10-05T06:52:17.525Z,37.28
2022-10-05T06:57:33.647Z,34.33
2022-10-05T07:08:06.671Z,33.35
2022-10-05T07:13:30.375Z,32.33
2022-10-05T07:18:56.970Z,25.58
2022-10-05T07:24:07.919Z,28.85
2022-10-05T07:29:37.760Z,28.02
2022-10-05T07:34:51.225Z,32.88
2022-10-05T07:40:08.223Z,28.30
2022-10-05T07:45:29.357Z,32.70
2022-10-05T07:50:42.895Z,25.92
2022-10-05T07:55:51.379Z,30.10
2022-10-05T08:01:01.278Z,31.05
2022-10-05T08:06:13.241Z,26.80
2022-10-05T08:11:27.090Z,28.77
2022-10-05T08:16:35.524Z,24.67
2022-10-05T08:21:42.135Z,29.90
2022-10-05T08:26:47.343Z,22.73
2022-10-05T08:31:55.177Z,24.10
2022-10-05T08:37:00.764Z,25.33
2022-10-05T08:42:11.975Z,20.85
2022-10-05T08:47:22.380Z,25.10
2022-10-05T08:52:54.284Z,21.00
2022-10-05T08:58:04.660Z,23.58
2022-10-05T09:03:35.599Z,24.73
2022-10-05T09:08:44.190Z,25.35
2022-10-05T09:13:55.896Z,26.13
2022-10-05T09:19:18.355Z,31.52
2022-10-05T09:24:31.411Z,30.58
2022-10-05T09:30:02.518Z,26.27
2022-10-05T09:35:18.510Z,28.67
2022-10-05T09:40:46.424Z,29.20
2022-10-05T09:45:52.609Z,35.08
2022-10-05T09:51:03.967Z,33.75
2022-10-05T09:56:21.703Z,35.90
2022-10-05T10:01:33.766Z,29.58
2022-10-05T10:06:40.607Z,34.33
2022-10-05T10:12:01.161Z,29.48
2022-10-05T10:17:22.299Z,28.58
2022-10-05T10:22:46.125Z,27.05
2022-10-05T10:28:03.526Z,26.52
2022-10-05T10:33:16.783Z,28.15
2022-10-05T10:38:29.829Z,32.85
2022-10-05T10:43:38.441Z,27.33
2022-10-05T10:48:46.593Z,23.63
2022-10-05T10:54:14.613Z,30.50
2022-10-05T10:59:27.881Z,34.47
2022-10-05T11:04:48.078Z,32.20
2022-10-05T11:09:53.213Z,33.10
2022-10-05T11:15:13.802Z,29.77
2022-10-05T11:20:18.948Z,34.17
2022-10-05T11:25:30.424Z,34.45
2022-10-05T11:30:53.853Z,33.28
2022-10-05T11:36:00.174Z,39.67
2022-10-05T11:41:20.894Z,29.17
2022-10-05T11:46:26.416Z,22.65
2022-10-05T11:57:03.031Z,31.27
2022-10-05T12:02:23.628Z,27.13
2022-10-05T12:07:43.226Z,30.90
2022-10-05T12:13:03.995Z,31.52
2022-10-05T12:18:26.260Z,29.60
2022-10-05T12:23:40.427Z,23.15
2022-10-05T12:29:01.462Z,18.20
2022-10-05T12:34:46.599Z,30.55
2022-10-05T12:40:10.253Z,17.33
2022-10-05T12:45:22.323Z,27.50
2022-10-05T12:50:33.543Z,26.52
2022-10-05T12:55:42.615Z,24.50
2022-10-05T13:01:10.874Z,28.23
2022-10-05T13:06:45.355Z,30.20
2022-10-05T13:11:56.238Z,29.65
2022-10-05T13:17:11.999Z,14.55
2022-10-05T13:22:45.047Z,30.65
2022-10-05T13:27:51.218Z,33.72
2022-10-05T13:33:09.674Z,32.22
2022-10-05T13:38:39.626Z,37.88
2022-10-05T13:43:48.740Z,29.60
2022-10-05T13:49:22.267Z,34.38
2022-10-05T13:54:34.474Z,28.20
2022-10-05T14:00:01.011Z,34.10
2022-10-05T14:05:20.603Z,33.83
2022-10-05T14:10:42.256Z,36.88
2022-10-05T14:16:00.767Z,38.17
2022-10-05T14:21:19.105Z,34.63
2022-10-05T14:26:27.396Z,40.67
2022-10-05T14:31:39.832Z,40.03
2022-10-05T14:36:45.636Z,39.38
2022-10-05T14:41:52.608Z,36.85
2022-10-05T14:47:05.909Z,38.13
2022-10-05T14:52:34.531Z,33.85
2022-10-05T14:57:47.329Z,39.88
2022-10-05T15:03:01.966Z,35.08
2022-10-05T15:08:30.558Z,44.05
2022-10-05T15:13:45.975Z,48.10
2022-10-05T15:18:54.128Z,42.20
2022-10-05T15:24:02.607Z,49.15
2022-10-05T15:29:08.195Z,50.35
2022-10-05T15:34:36.054Z,45.08
2022-10-05T15:40:00.456Z,42.33
2022-10-05T15:45:19.060Z,47.53
2022-10-05T15:50:51.942Z,46.88
2022-10-05T16:01:29.189Z,51.47
2022-10-05T16:07:11.670Z,43.08
2022-10-05T16:12:23.760Z,45.58
2022-10-05T16:17:34.687Z,48.65
2022-10-05T16:22:43.685Z,47.58
2022-10-05T16:28:21.754Z,44.90
2022-10-05T16:33:33.261Z,43.05
2022-10-05T16:38:43.427Z,44.85
2022-10-05T16:44:07.378Z,40.78
2022-10-05T16:49:15.570Z,40.00
2022-10-05T16:54:22.334Z,37.60
2022-10-05T16:59:27.365Z,36.38
2022-10-05T17:04:47.383Z,37.97
2022-10-05T17:10:04.899Z,31.65
2022-10-05T17:15:27.147Z,35.90
2022-10-05T17:20:42.874Z,29.02
2022-10-05T17:31:13.407Z,30.17
2022-10-05T17:36:20.611Z,32.28
2022-10-05T17:41:26.914Z,29.27
2022-10-05T17:46:51.867Z,30.63
2022-10-05T17:52:15.216Z,36.17
2022-10-05T17:57:22.590Z,37.00
2022-10-05T18:02:38.666Z,34.28
2022-10-05T18:08:04.296Z,32.50
2022-10-05T18:13:22.611Z,30.20
2022-10-05T18:18:45.828Z,29.50
2022-10-05T18:24:00.362Z,31.77
2022-10-05T18:29:49.622Z,27.10
2022-10-05T18:35:12.718Z,29.20
2022-10-05T18:40:22.528Z,35.00
2022-10-05T18:45:39.608Z,30.27
2022-10-05T18:51:02.573Z,34.08
2022-10-05T18:56:27.234Z,32.47
2022-10-05T19:01:58.555Z,33.22
2022-10-05T19:07:07.026Z,33.80
2022-10-05T19:12:21.281Z,34.28
2022-10-05T19:17:46.585Z,38.60
2022-10-05T19:22:51.706Z,32.73
2022-10-05T19:28:03.051Z,36.08
2022-10-05T19:33:30.817Z,30.75
2022-10-05T19:38:54.388Z,31.92
2022-10-05T19:44:17.982Z,31.58
2022-10-05T19:49:38.225Z,28.13
2022-10-05T19:54:43.849Z,22.90
2022-10-05T20:04:56.435Z,32.10
2022-10-05T20:10:19.893Z,30.73
2022-10-05T20:15:50.487Z,35.22
2022-10-05T20:20:56.296Z,32.35
2022-10-05T20:26:19.808Z,31.42
2022-10-05T20:31:25.273Z,37.25
2022-10-05T20:36:30.431Z,40.15
2022-10-05T20:41:37.179Z,33.42
2022-10-05T20:46:45.061Z,33.10
2022-10-05T20:51:49.970Z,39.40
2022-10-05T20:57:00.541Z,37.83
2022-10-05T21:02:05.952Z,39.85
2022-10-05T21:12:17.707Z,46.50
2022-10-05T21:17:22.834Z,34.70
2022-10-05T21:22:27.847Z,40.67
2022-10-05T21:27:33.181Z,39.90
2022-10-05T21:32:43.947Z,38.67
2022-10-05T21:37:49.584Z,42.60
2022-10-05T21:43:16.630Z,50.70
2022-10-05T21:48:21.763Z,53.13
2022-10-05T21:53:28.908Z,52.53
2022-10-05T21:58:34.400Z,48.67
2022-10-05T22:03:39.706Z,49.08
2022-10-05T22:08:45.119Z,57.90
2022-10-05T22:13:51.640Z,45.85
2022-10-05T22:18:56.814Z,47.10
2022-10-05T22:24:03.661Z,47.80
2022-10-05T22:29:08.727Z,59.55
2022-10-05T22:34:14.769Z,70.20
2022-10-05T22:39:20.277Z,56.22
2022-10-05T22:44:25.836Z,66.85
2022-10-05T22:49:31.622Z,56.13
2022-10-05T22:54:37.395Z,58.42
2022-10-05T22:59:43.018Z,80.88
2022-10-05T23:04:48.786Z,69.35
2022-10-05T23:09:53.899Z,67.55
2022-10-05T23:14:58.955Z,76.10
2022-10-05T23:20:04.093Z,84.28
2022-10-05T23:25:11.079Z,78.72
2022-10-05T23:30:16.832Z,77.38
2022-10-05T23:35:22.296Z,91.07
2022-10-05T23:40:27.908Z,82.72
2022-10-05T23:50:39.325Z,89.78
2022-10-05T23:55:45.564Z,87.35
